createdAt,value
2018-07-14T00:02:20.466Z,6.60
2018-07-14T00:04:49.614Z,6.50
2018-07-14T00:07:18.977Z,7.03
2018-07-14T00:09:47.888Z,6.63
2018-07-14T00:12:16.949Z,6.17
2018-07-14T00:14:45.931Z,7.23
2018-07-14T00:17:14.862Z,6.47
2018-07-14T00:19:43.756Z,7.50
2018-07-14T00:22:12.885Z,7.00
2018-07-14T00:24:41.841Z,6.67
2018-07-14T00:27:10.776Z,7.30
2018-07-14T00:29:39.664Z,6.40
2018-07-14T00:32:08.855Z,6.00
2018-07-14T00:34:37.776Z,7.00
2018-07-14T00:37:06.771Z,6.87
2018-07-14T00:39:35.672Z,6.43
2018-07-14T00:42:04.540Z,6.03
2018-07-14T00:44:33.480Z,6.57
2018-07-14T00:47:02.372Z,6.77
2018-07-14T00:49:31.276Z,6.73
2018-07-14T00:52:00.132Z,6.67
2018-07-14T00:54:29.225Z,7.50
2018-07-14T00:56:58.142Z,6.30
2018-07-14T00:59:27.028Z,6.30
2018-07-14T01:01:56.223Z,6.27
2018-07-14T01:04:25.166Z,6.20
2018-07-14T01:06:54.098Z,6.33
2018-07-14T01:09:23.091Z,6.40
2018-07-14T01:11:52.019Z,6.30
2018-07-14T01:14:20.941Z,6.37
2018-07-14T01:16:49.836Z,6.30
2018-07-14T01:19:18.759Z,7.20
2018-07-14T01:21:47.720Z,6.60
2018-07-14T01:24:16.962Z,6.40
2018-07-14T01:26:45.871Z,6.63
2018-07-14T01:29:16.140Z,6.57
2018-07-14T01:31:44.992Z,6.90
2018-07-14T01:34:14.070Z,6.20
2018-07-14T01:36:43.018Z,6.43
2018-07-14T01:39:11.941Z,6.20
2018-07-14T01:41:40.890Z,6.50
2018-07-14T01:44:09.759Z,6.27
2018-07-14T01:46:39.817Z,7.20
2018-07-14T01:49:08.758Z,6.40
2018-07-14T01:51:37.719Z,6.70
2018-07-14T01:54:06.672Z,6.73
2018-07-14T01:56:35.516Z,6.73
2018-07-14T01:59:04.574Z,6.93
2018-07-14T02:01:33.426Z,6.33
2018-07-14T02:04:02.307Z,5.90
2018-07-14T02:06:31.294Z,6.10
2018-07-14T02:09:00.236Z,6.50
2018-07-14T02:11:29.154Z,7.30
2018-07-14T02:13:58.208Z,5.93
2018-07-14T02:16:27.209Z,7.10
2018-07-14T02:18:56.055Z,6.60
2018-07-14T02:21:24.970Z,6.00
2018-07-14T02:23:54.004Z,7.10
2018-07-14T02:26:23.203Z,6.40
2018-07-14T02:28:52.168Z,6.30
2018-07-14T02:31:21.232Z,6.33
2018-07-14T02:33:50.113Z,6.50
2018-07-14T02:36:19.280Z,6.50
2018-07-14T02:38:48.140Z,5.93
2018-07-14T02:41:17.225Z,6.27
2018-07-14T02:43:46.292Z,6.10
2018-07-14T02:46:15.307Z,5.47
2018-07-14T02:48:44.152Z,5.90
2018-07-14T02:51:13.117Z,6.33
2018-07-14T02:53:41.986Z,6.57
2018-07-14T02:56:10.873Z,6.57
2018-07-14T02:58:39.829Z,5.70
2018-07-14T03:01:08.713Z,6.20
2018-07-14T03:03:37.819Z,5.93
2018-07-14T03:06:06.812Z,5.90
2018-07-14T03:08:35.762Z,5.83
2018-07-14T03:11:04.806Z,6.13
2018-07-14T03:13:33.813Z,5.90
2018-07-14T03:16:02.730Z,6.13
2018-07-14T03:18:31.646Z,5.93
2018-07-14T03:21:00.579Z,6.80
2018-07-14T03:23:29.500Z,6.40
2018-07-14T03:25:58.474Z,5.63
2018-07-14T03:28:27.421Z,5.80
2018-07-14T03:30:56.661Z,6.07
2018-07-14T03:33:25.554Z,5.77
2018-07-14T03:35:54.508Z,6.10
2018-07-14T03:38:23.413Z,5.70
2018-07-14T03:40:52.413Z,5.90
2018-07-14T03:43:21.377Z,5.80
2018-07-14T03:45:50.312Z,6.03
2018-07-14T03:48:19.386Z,6.00
2018-07-14T03:50:48.304Z,5.47
2018-07-14T03:53:17.486Z,5.53
2018-07-14T03:55:46.423Z,5.93
2018-07-14T03:58:15.383Z,5.33
2018-07-14T04:00:44.310Z,5.53
2018-07-14T04:03:13.370Z,5.70
2018-07-14T04:05:42.303Z,5.83
2018-07-14T04:08:11.263Z,5.33
2018-07-14T04:10:40.215Z,6.17
2018-07-14T04:13:09.365Z,6.10
2018-07-14T04:15:38.400Z,7.30
2018-07-14T04:18:07.581Z,6.90
2018-07-14T04:20:37.486Z,6.40
2018-07-14T04:23:06.522Z,6.67
2018-07-14T04:25:35.433Z,6.30
2018-07-14T04:28:04.512Z,7.20
2018-07-14T04:30:33.619Z,6.60
2018-07-14T04:33:02.645Z,6.67
2018-07-14T04:35:31.592Z,6.10
2018-07-14T04:38:00.435Z,5.93
2018-07-14T04:40:29.320Z,6.10
2018-07-14T04:42:58.233Z,6.10
2018-07-14T04:45:27.204Z,6.20
2018-07-14T04:47:56.187Z,6.10
2018-07-14T04:50:25.211Z,6.27
2018-07-14T04:52:54.159Z,5.90
2018-07-14T04:55:23.166Z,5.60
2018-07-14T04:57:52.184Z,5.50
2018-07-14T05:00:21.167Z,5.90
2018-07-14T05:02:50.182Z,5.57
2018-07-14T05:05:19.225Z,6.10
2018-07-14T05:07:48.221Z,5.60
2018-07-14T05:10:17.212Z,5.60
2018-07-14T05:12:46.157Z,5.43
2018-07-14T05:15:15.184Z,5.30
2018-07-14T05:17:44.191Z,5.90
2018-07-14T05:20:13.200Z,5.00
2018-07-14T05:22:42.138Z,5.83
2018-07-14T05:25:11.160Z,15.23
2018-07-14T05:27:40.164Z,9.73
2018-07-14T05:30:09.253Z,7.20
2018-07-14T05:32:38.188Z,5.57
2018-07-14T05:35:07.308Z,4.37
2018-07-14T05:37:36.321Z,4.87
2018-07-14T05:40:05.468Z,3.90
2018-07-14T05:42:34.566Z,3.67
2018-07-14T05:45:03.681Z,3.27
2018-07-14T05:47:32.723Z,2.90
2018-07-14T05:50:01.660Z,3.00
2018-07-14T05:52:30.765Z,2.70
2018-07-14T05:54:59.947Z,3.03
2018-07-14T05:57:29.124Z,2.97
2018-07-14T05:59:58.188Z,3.10
2018-07-14T06:02:27.273Z,3.17
2018-07-14T06:04:56.348Z,2.83
2018-07-14T06:07:25.384Z,3.40
2018-07-14T06:09:54.469Z,3.00
2018-07-14T06:12:23.510Z,2.80
2018-07-14T06:14:52.573Z,2.93
2018-07-14T06:17:21.643Z,2.77
2018-07-14T06:19:50.604Z,2.70
2018-07-14T06:22:19.677Z,3.07
2018-07-14T06:24:48.702Z,2.53
2018-07-14T06:27:17.723Z,2.70
2018-07-14T06:29:46.700Z,2.60
2018-07-14T06:32:15.699Z,2.40
2018-07-14T06:34:44.742Z,3.00
2018-07-14T06:37:14.732Z,2.70
2018-07-14T06:39:43.761Z,3.00
2018-07-14T06:42:12.784Z,3.10
2018-07-14T06:44:41.758Z,3.00
2018-07-14T06:47:10.778Z,3.17
2018-07-14T06:49:39.810Z,3.30
2018-07-14T06:52:08.872Z,3.07
2018-07-14T06:54:37.975Z,3.17
2018-07-14T06:57:07.020Z,3.40
2018-07-14T06:59:36.080Z,3.10
2018-07-14T07:02:05.195Z,3.00
2018-07-14T07:04:34.098Z,3.57
2018-07-14T07:07:03.193Z,3.03
2018-07-14T07:09:33.186Z,3.53
2018-07-14T07:12:02.247Z,2.80
2018-07-14T07:14:31.272Z,2.73
2018-07-14T07:17:00.499Z,2.57
2018-07-14T07:19:29.485Z,2.80
2018-07-14T07:21:58.532Z,3.00
2018-07-14T07:24:27.516Z,2.73
2018-07-14T07:26:56.516Z,2.70
2018-07-14T07:29:25.588Z,2.50
2018-07-14T07:31:54.617Z,2.50
2018-07-14T07:34:23.671Z,2.83
2018-07-14T07:36:52.755Z,2.30
2018-07-14T07:39:21.756Z,2.20
2018-07-14T07:41:50.814Z,2.17
2018-07-14T07:44:19.905Z,2.00
2018-07-14T07:46:49.237Z,2.03
2018-07-14T07:49:18.269Z,2.30
2018-07-14T07:51:47.284Z,1.83
2018-07-14T07:54:16.444Z,2.20
2018-07-14T07:56:45.544Z,2.07
2018-07-14T07:59:14.550Z,2.10
2018-07-14T08:01:43.637Z,2.10
2018-07-14T08:04:12.530Z,1.90
2018-07-14T08:06:41.612Z,1.73
2018-07-14T08:09:10.689Z,1.90
2018-07-14T08:11:39.763Z,1.80
2018-07-14T08:14:08.769Z,1.90
2018-07-14T08:16:37.792Z,1.83
2018-07-14T08:19:06.878Z,2.00
2018-07-14T08:21:36.040Z,1.63
2018-07-14T08:24:05.072Z,1.90
2018-07-14T08:26:34.190Z,1.70
2018-07-14T08:29:03.200Z,1.70
2018-07-14T08:31:32.225Z,1.63
2018-07-14T08:34:01.376Z,1.63
2018-07-14T08:36:30.416Z,1.80
2018-07-14T08:38:59.436Z,2.03
2018-07-14T08:41:28.530Z,1.87
2018-07-14T08:43:57.613Z,1.90
2018-07-14T08:46:26.784Z,1.67
2018-07-14T08:48:56.015Z,1.90
2018-07-14T08:51:25.026Z,2.20
2018-07-14T08:53:54.049Z,1.60
2018-07-14T08:56:23.139Z,1.93
2018-07-14T08:58:52.200Z,1.67
2018-07-14T09:01:21.241Z,1.80
2018-07-14T09:03:50.240Z,1.77
2018-07-14T09:06:19.269Z,1.63
2018-07-14T09:08:48.408Z,1.60
2018-07-14T09:11:17.425Z,1.67
2018-07-14T09:13:46.436Z,1.60
2018-07-14T09:16:15.415Z,1.87
2018-07-14T09:18:44.452Z,1.97
2018-07-14T09:21:13.461Z,1.93
2018-07-14T09:23:42.520Z,2.03
2018-07-14T09:26:11.704Z,1.80
2018-07-14T09:28:40.631Z,1.40
2018-07-14T09:31:09.604Z,1.73
2018-07-14T09:33:38.590Z,1.50
2018-07-14T09:36:07.584Z,1.40
2018-07-14T09:38:36.657Z,1.60
2018-07-14T09:41:05.759Z,1.40
2018-07-14T09:43:34.740Z,1.30
2018-07-14T09:46:03.783Z,1.60
2018-07-14T09:48:32.837Z,1.40
2018-07-14T09:51:01.887Z,1.20
2018-07-14T09:53:30.948Z,1.20
2018-07-14T09:55:59.962Z,1.60
2018-07-14T09:58:29.097Z,1.30
2018-07-14T10:01:03.222Z,1.37
2018-07-14T10:03:32.185Z,1.40
2018-07-14T10:06:01.281Z,1.10
2018-07-14T10:08:30.740Z,1.40
2018-07-14T10:10:59.804Z,1.30
2018-07-14T10:13:29.065Z,1.37
2018-07-14T10:15:58.693Z,1.23
2018-07-14T10:18:27.796Z,1.37
2018-07-14T10:20:56.865Z,1.37
2018-07-14T10:23:25.908Z,1.20
2018-07-14T10:25:55.117Z,1.30
2018-07-14T10:28:24.021Z,1.13
2018-07-14T10:30:53.110Z,1.13
2018-07-14T10:33:22.073Z,1.00
2018-07-14T10:35:51.049Z,1.27
2018-07-14T10:38:20.083Z,1.30
2018-07-14T10:40:49.188Z,0.90
2018-07-14T10:43:18.411Z,0.70
2018-07-14T10:45:47.413Z,0.80
2018-07-14T10:48:16.440Z,0.70
2018-07-14T10:50:45.549Z,0.80
2018-07-14T10:53:14.561Z,0.80
2018-07-14T10:55:43.614Z,0.80
2018-07-14T10:58:12.680Z,0.80
2018-07-14T11:00:41.703Z,0.70
2018-07-14T11:03:10.707Z,1.03
2018-07-14T11:05:39.692Z,0.80
2018-07-14T11:08:08.919Z,0.80
2018-07-14T11:10:37.967Z,0.90
2018-07-14T11:13:06.988Z,0.73
2018-07-14T11:15:35.996Z,0.73
2018-07-14T11:18:05.106Z,0.90
2018-07-14T11:20:34.029Z,0.80
2018-07-14T11:23:03.055Z,0.70
2018-07-14T11:25:32.334Z,0.80
2018-07-14T11:28:01.310Z,0.70
2018-07-14T11:30:30.317Z,1.03
2018-07-14T11:32:59.349Z,0.70
2018-07-14T11:35:28.517Z,0.80
2018-07-14T11:37:57.540Z,0.77
2018-07-14T11:40:26.544Z,1.00
2018-07-14T11:42:55.652Z,1.00
2018-07-14T11:45:24.657Z,0.90
2018-07-14T11:47:53.727Z,0.90
2018-07-14T11:50:22.804Z,0.73
2018-07-14T11:52:52.037Z,0.80
2018-07-14T11:55:21.068Z,0.80
2018-07-14T11:57:51.985Z,1.00
2018-07-14T12:00:21.041Z,0.80
2018-07-14T12:02:50.100Z,0.70
2018-07-14T12:05:19.513Z,0.97
2018-07-14T12:07:48.725Z,0.90
2018-07-14T12:10:17.703Z,0.90
2018-07-14T12:12:46.737Z,0.80
2018-07-14T12:15:15.705Z,0.80
2018-07-14T12:17:44.656Z,0.80
2018-07-14T12:20:13.702Z,0.93
2018-07-14T12:22:42.728Z,0.80
2018-07-14T12:25:11.724Z,0.90
2018-07-14T12:27:40.733Z,0.83
2018-07-14T12:30:09.842Z,1.37
2018-07-14T12:32:38.872Z,0.80
2018-07-14T12:35:08.174Z,0.90
2018-07-14T12:37:37.201Z,0.90
2018-07-14T12:40:06.101Z,0.90
2018-07-14T12:42:35.154Z,0.80
2018-07-14T12:45:04.273Z,0.90
2018-07-14T12:47:33.310Z,1.10
2018-07-14T12:50:02.156Z,0.87
2018-07-14T12:52:31.221Z,0.90
2018-07-14T12:55:00.281Z,0.97
2018-07-14T12:57:29.450Z,0.80
2018-07-14T12:59:58.482Z,1.00
2018-07-14T13:02:27.394Z,0.87
2018-07-14T13:04:56.394Z,1.10
2018-07-14T13:07:25.393Z,0.90
2018-07-14T13:09:54.328Z,0.90
2018-07-14T13:12:23.267Z,1.03
2018-07-14T13:14:52.459Z,0.83
2018-07-14T13:17:21.453Z,0.80
2018-07-14T13:19:50.556Z,0.97
2018-07-14T13:22:19.581Z,1.00
2018-07-14T13:24:48.620Z,1.07
2018-07-14T13:27:17.704Z,1.13
2018-07-14T13:29:46.769Z,0.80
2018-07-14T13:32:15.760Z,1.00
2018-07-14T13:34:44.832Z,0.93
2018-07-14T13:37:13.722Z,0.90
2018-07-14T13:39:42.808Z,1.00
2018-07-14T13:42:11.817Z,1.00
2018-07-14T13:44:40.880Z,0.90
2018-07-14T13:47:09.885Z,0.93
2018-07-14T13:49:38.966Z,1.00
2018-07-14T13:52:08.065Z,0.93
2018-07-14T13:54:37.124Z,1.20
2018-07-14T13:57:06.380Z,1.00
2018-07-14T13:59:35.550Z,1.07
2018-07-14T14:02:04.804Z,1.00
2018-07-14T14:04:33.757Z,0.90
2018-07-14T14:07:02.865Z,1.13
2018-07-14T14:09:32.002Z,0.83
2018-07-14T14:12:01.176Z,0.70
2018-07-14T14:14:30.275Z,0.87
2018-07-14T14:16:59.259Z,0.83
2018-07-14T14:19:28.376Z,0.90
2018-07-14T14:21:57.392Z,0.90
2018-07-14T14:24:26.421Z,0.93
2018-07-14T14:26:55.459Z,0.80
2018-07-14T14:29:24.492Z,0.80
2018-07-14T14:31:53.530Z,0.70
2018-07-14T14:34:23.568Z,1.00
2018-07-14T14:36:52.620Z,1.10
2018-07-14T14:39:21.616Z,0.90
2018-07-14T14:41:50.701Z,1.00
2018-07-14T14:44:19.685Z,0.90
2018-07-14T14:46:48.664Z,0.97
2018-07-14T14:49:17.640Z,0.90
2018-07-14T14:51:47.044Z,1.00
2018-07-14T14:54:16.113Z,1.20
2018-07-14T14:56:45.192Z,0.90
2018-07-14T14:59:14.205Z,0.83
2018-07-14T15:01:43.252Z,0.90
2018-07-14T15:04:12.273Z,1.07
2018-07-14T15:06:41.362Z,0.97
2018-07-14T15:09:10.546Z,0.93
2018-07-14T15:11:39.584Z,1.20
2018-07-14T15:14:08.600Z,1.20
2018-07-14T15:16:37.743Z,1.10
2018-07-14T15:19:06.700Z,1.20
2018-07-14T15:21:35.732Z,1.27
2018-07-14T15:24:04.833Z,1.23
2018-07-14T15:26:33.835Z,1.10
2018-07-14T15:29:02.860Z,1.20
2018-07-14T15:31:31.853Z,1.00
2018-07-14T15:34:00.912Z,1.00
2018-07-14T15:36:29.868Z,1.10
2018-07-14T15:38:58.996Z,1.37
2018-07-14T15:41:28.013Z,1.00
2018-07-14T15:43:57.081Z,1.10
2018-07-14T15:46:26.059Z,1.03
2018-07-14T15:48:55.079Z,1.00
2018-07-14T15:51:24.117Z,1.03
2018-07-14T15:53:53.100Z,1.03
2018-07-14T15:56:22.156Z,1.00
2018-07-14T15:58:51.196Z,1.20
2018-07-14T16:01:20.244Z,1.20
2018-07-14T16:03:49.168Z,1.00
2018-07-14T16:06:18.341Z,1.20
2018-07-14T16:08:47.370Z,0.93
2018-07-14T16:11:16.493Z,1.00
2018-07-14T16:13:45.492Z,1.03
2018-07-14T16:16:14.540Z,1.23
2018-07-14T16:18:43.611Z,1.03
2018-07-14T16:21:12.620Z,0.97
2018-07-14T16:23:41.644Z,1.00
2018-07-14T16:26:10.781Z,1.20
2018-07-14T16:28:39.764Z,1.00
2018-07-14T16:31:08.790Z,1.00
2018-07-14T16:33:37.877Z,1.00
2018-07-14T16:36:06.966Z,1.10
2018-07-14T16:38:36.057Z,1.00
2018-07-14T16:41:05.174Z,1.30
2018-07-14T16:43:34.218Z,1.17
2018-07-14T16:46:03.412Z,1.00
2018-07-14T16:48:32.446Z,1.37
2018-07-14T16:51:01.522Z,1.17
2018-07-14T16:53:30.643Z,1.00
2018-07-14T16:55:59.572Z,0.93
2018-07-14T16:58:28.628Z,1.30
2018-07-14T17:00:57.632Z,1.10
2018-07-14T17:03:26.736Z,1.00
2018-07-14T17:05:55.781Z,1.00
2018-07-14T17:08:24.868Z,0.90
2018-07-14T17:10:53.913Z,0.93
2018-07-14T17:13:23.006Z,0.90
2018-07-14T17:15:52.021Z,0.90
2018-07-14T17:18:21.060Z,0.90
2018-07-14T17:20:50.117Z,0.90
2018-07-14T17:23:19.180Z,0.90
2018-07-14T17:25:48.273Z,1.10
2018-07-14T17:28:17.340Z,0.90
2018-07-14T17:30:46.433Z,1.00
2018-07-14T17:33:15.787Z,1.00
2018-07-14T17:35:44.875Z,1.23
2018-07-14T17:38:13.970Z,0.97
2018-07-14T17:40:43.016Z,1.40
2018-07-14T17:43:12.036Z,1.20
2018-07-14T17:45:41.078Z,0.93
2018-07-14T17:48:10.148Z,0.90
2018-07-14T17:50:39.183Z,1.00
2018-07-14T17:53:08.254Z,1.10
2018-07-14T17:55:37.288Z,1.00
2018-07-14T17:58:06.388Z,0.93
2018-07-14T18:00:35.465Z,1.20
2018-07-14T18:03:04.492Z,1.20
2018-07-14T18:05:33.527Z,1.00
2018-07-14T18:08:02.583Z,1.00
2018-07-14T18:10:31.616Z,1.07
2018-07-14T18:13:00.646Z,1.10
2018-07-14T18:15:29.749Z,1.10
2018-07-14T18:17:58.802Z,0.90
2018-07-14T18:20:27.837Z,1.00
2018-07-14T18:22:56.875Z,1.00
2018-07-14T18:25:25.976Z,1.00
2018-07-14T18:27:55.017Z,1.20
2018-07-14T18:30:24.061Z,1.00
2018-07-14T18:32:53.127Z,0.93
2018-07-14T18:35:22.200Z,0.90
2018-07-14T18:37:51.221Z,1.07
2018-07-14T18:40:20.362Z,1.13
2018-07-14T18:42:49.360Z,1.10
2018-07-14T18:45:18.388Z,1.00
2018-07-14T18:47:47.407Z,1.00
2018-07-14T18:50:17.363Z,1.00
2018-07-14T18:52:46.550Z,0.90
2018-07-14T18:55:15.628Z,1.20
2018-07-14T18:57:44.650Z,1.10
2018-07-14T19:00:13.720Z,1.10
2018-07-14T19:02:42.764Z,0.90
2018-07-14T19:05:11.827Z,0.90
2018-07-14T19:07:40.856Z,1.10
2018-07-14T19:10:09.961Z,1.00
2018-07-14T19:12:38.984Z,1.10
2018-07-14T19:15:08.056Z,1.03
2018-07-14T19:17:37.041Z,1.20
2018-07-14T19:20:06.060Z,1.17
2018-07-14T19:22:35.072Z,1.10
2018-07-14T19:25:04.109Z,1.00
2018-07-14T19:27:33.164Z,1.03
2018-07-14T19:30:02.201Z,1.00
2018-07-14T19:32:31.224Z,1.20
2018-07-14T19:35:00.279Z,1.20
2018-07-14T19:37:29.348Z,1.40
2018-07-14T19:39:58.392Z,1.40
2018-07-14T19:42:27.438Z,1.33
2018-07-14T19:44:56.646Z,1.47
2018-07-14T19:47:25.712Z,1.33
2018-07-14T19:49:54.742Z,1.30
2018-07-14T19:52:24.757Z,1.23
2018-07-14T19:54:53.794Z,1.43
2018-07-14T19:57:22.799Z,1.50
2018-07-14T19:59:51.815Z,1.27
2018-07-14T20:02:20.891Z,1.40
2018-07-14T20:04:49.933Z,1.40
2018-07-14T20:07:18.958Z,1.50
2018-07-14T20:09:48.028Z,1.40
2018-07-14T20:12:17.161Z,1.40
2018-07-14T20:14:46.161Z,1.80
2018-07-14T20:17:15.167Z,1.27
2018-07-14T20:19:44.248Z,1.50
2018-07-14T20:22:13.204Z,1.30
2018-07-14T20:24:42.207Z,1.50
2018-07-14T20:27:11.244Z,1.23
2018-07-14T20:29:40.231Z,1.63
2018-07-14T20:32:09.241Z,1.27
2018-07-14T20:34:38.247Z,1.60
2018-07-14T20:37:07.395Z,1.43
2018-07-14T20:39:36.388Z,1.30
2018-07-14T20:42:05.468Z,1.60
2018-07-14T20:44:34.480Z,1.57
2018-07-14T20:47:03.598Z,1.57
2018-07-14T20:49:32.598Z,1.80
2018-07-14T20:52:01.633Z,1.60
2018-07-14T20:54:30.621Z,1.50
2018-07-14T20:56:59.695Z,1.43
2018-07-14T20:59:28.614Z,1.50
2018-07-14T21:01:57.600Z,1.50
2018-07-14T21:04:26.760Z,1.30
2018-07-14T21:06:55.818Z,1.83
2018-07-14T21:09:24.776Z,1.50
2018-07-14T21:11:53.764Z,1.13
2018-07-14T21:14:22.805Z,1.57
2018-07-14T21:16:51.825Z,1.30
2018-07-14T21:19:20.864Z,1.53
2018-07-14T21:21:49.872Z,1.40
2018-07-14T21:24:18.904Z,1.83
2018-07-14T21:26:47.845Z,1.70
2018-07-14T21:29:16.904Z,1.80
2018-07-14T21:31:45.986Z,1.50
2018-07-14T21:34:15.009Z,1.47
2018-07-14T21:36:44.065Z,1.50
2018-07-14T21:39:13.225Z,1.57
2018-07-14T21:41:42.249Z,1.90
2018-07-14T21:44:11.453Z,1.67
2018-07-14T21:46:40.472Z,1.80
2018-07-14T21:49:09.529Z,2.00
2018-07-14T21:51:38.532Z,1.80
2018-07-14T21:54:07.724Z,1.70
2018-07-14T21:56:36.655Z,1.77
2018-07-14T21:59:05.785Z,1.70
2018-07-14T22:01:39.792Z,1.90
2018-07-14T22:04:09.073Z,2.33
2018-07-14T22:06:38.123Z,1.80
2018-07-14T22:09:07.471Z,1.87
2018-07-14T22:11:36.474Z,1.90
2018-07-14T22:14:05.957Z,1.80
2018-07-14T22:16:34.939Z,1.77
2018-07-14T22:19:04.048Z,1.70
2018-07-14T22:21:33.132Z,1.90
2018-07-14T22:24:02.173Z,1.70
2018-07-14T22:26:31.113Z,1.80
2018-07-14T22:29:00.225Z,1.90
2018-07-14T22:31:29.607Z,1.77
2018-07-14T22:33:58.620Z,1.50
2018-07-14T22:36:27.588Z,1.70
2018-07-14T22:38:56.605Z,1.90
2018-07-14T22:41:25.592Z,1.60
2018-07-14T22:43:54.560Z,1.53
2018-07-14T22:46:23.501Z,1.63
2018-07-14T22:48:52.452Z,1.70
2018-07-14T22:51:21.433Z,1.53
2018-07-14T22:53:50.345Z,1.30
2018-07-14T22:56:19.253Z,1.50
2018-07-14T22:58:48.240Z,1.47
2018-07-14T23:01:17.408Z,1.60
2018-07-14T23:03:46.428Z,1.60
2018-07-14T23:06:15.390Z,1.70
2018-07-14T23:08:44.281Z,1.50
2018-07-14T23:11:13.116Z,1.70
2018-07-14T23:13:42.145Z,2.00
2018-07-14T23:16:11.176Z,2.00
2018-07-14T23:18:40.067Z,2.00
2018-07-14T23:21:09.048Z,2.03
2018-07-14T23:23:38.111Z,2.00
2018-07-14T23:26:07.008Z,2.17
2018-07-14T23:28:35.822Z,2.03
2018-07-14T23:31:04.794Z,1.97
2018-07-14T23:33:33.629Z,1.90
2018-07-14T23:36:02.552Z,2.20
2018-07-14T23:38:31.373Z,2.20
2018-07-14T23:41:00.228Z,2.10
2018-07-14T23:43:29.113Z,1.90
2018-07-14T23:45:58.165Z,2.03
2018-07-14T23:48:27.023Z,2.20
2018-07-14T23:50:56.060Z,2.10
2018-07-14T23:53:25.101Z,2.13
2018-07-14T23:55:54.007Z,2.20
2018-07-14T23:58:22.876Z,2.13
